sensor_id;sensor_type;location;lat;lon;timestamp;temperature;humidity
24097;DHT22;12275;48.550;12.132;2022-12-07T00:00:16;3.30;99.90
24097;DHT22;12275;48.550;12.132;2022-12-07T00:02:42;3.30;99.90
24097;DHT22;12275;48.550;12.132;2022-12-07T00:05:07;3.30;99.90
24097;DHT22;12275;48.550;12.132;2022-12-07T00:07:33;3.30;99.90
24097;DHT22;12275;48.550;12.132;2022-12-07T00:09:58;3.30;99.90
24097;DHT22;12275;48.550;12.132;2022-12-07T00:12:24;3.30;99.90
24097;DHT22;12275;48.550;12.132;2022-12-07T00:14:49;3.30;99.90
24097;DHT22;12275;48.550;12.132;2022-12-07T00:17:15;3.30;99.90
24097;DHT22;12275;48.550;12.132;2022-12-07T00:19:40;3.30;99.90
24097;DHT22;12275;48.550;12.132;2022-12-07T00:22:06;3.20;99.90
24097;DHT22;12275;48.550;12.132;2022-12-07T00:24:32;3.20;99.90
24097;DHT22;12275;48.550;12.132;2022-12-07T00:26:57;3.20;99.90
24097;DHT22;12275;48.550;12.132;2022-12-07T00:29:23;3.20;99.90
24097;DHT22;12275;48.550;12.132;2022-12-07T00:31:48;3.20;99.90
24097;DHT22;12275;48.550;12.132;2022-12-07T00:34:18;3.10;99.90
24097;DHT22;12275;48.550;12.132;2022-12-07T00:36:44;3.10;99.90
24097;DHT22;12275;48.550;12.132;2022-12-07T00:39:09;3.10;99.90
24097;DHT22;12275;48.550;12.132;2022-12-07T00:41:35;3.10;99.90
24097;DHT22;12275;48.550;12.132;2022-12-07T00:44:00;3.10;99.90
24097;DHT22;12275;48.550;12.132;2022-12-07T00:46:26;3.10;99.90
24097;DHT22;12275;48.550;12.132;2022-12-07T00:48:52;3.10;99.90
24097;DHT22;12275;48.550;12.132;2022-12-07T00:51:18;3.10;99.90
24097;DHT22;12275;48.550;12.132;2022-12-07T00:53:44;3.10;99.90
24097;DHT22;12275;48.550;12.132;2022-12-07T00:56:20;3.10;99.90
24097;DHT22;12275;48.550;12.132;2022-12-07T00:58:53;3.10;99.90
24097;DHT22;12275;48.550;12.132;2022-12-07T01:01:19;3.10;99.90
24097;DHT22;12275;48.550;12.132;2022-12-07T01:03:45;3.10;99.90
24097;DHT22;12275;48.550;12.132;2022-12-07T01:06:13;3.10;99.90
24097;DHT22;12275;48.550;12.132;2022-12-07T01:08:39;3.10;99.90
24097;DHT22;12275;48.550;12.132;2022-12-07T01:11:06;3.10;99.90
24097;DHT22;12275;48.550;12.132;2022-12-07T01:13:33;3.10;99.90
24097;DHT22;12275;48.550;12.132;2022-12-07T01:15:59;3.00;99.90
24097;DHT22;12275;48.550;12.132;2022-12-07T01:18:26;3.00;99.90
24097;DHT22;12275;48.550;12.132;2022-12-07T01:20:59;3.00;99.90
24097;DHT22;12275;48.550;12.132;2022-12-07T01:23:24;3.10;99.90
24097;DHT22;12275;48.550;12.132;2022-12-07T01:26:00;3.10;99.90
24097;DHT22;12275;48.550;12.132;2022-12-07T01:28:26;3.10;99.90
24097;DHT22;12275;48.550;12.132;2022-12-07T01:30:56;3.10;99.90
24097;DHT22;12275;48.550;12.132;2022-12-07T01:33:21;3.00;99.90
24097;DHT22;12275;48.550;12.132;2022-12-07T01:35:47;3.00;99.90
24097;DHT22;12275;48.550;12.132;2022-12-07T01:38:12;3.00;99.90
24097;DHT22;12275;48.550;12.132;2022-12-07T01:40:38;3.00;99.90
24097;DHT22;12275;48.550;12.132;2022-12-07T01:43:07;3.00;99.90
24097;DHT22;12275;48.550;12.132;2022-12-07T01:45:36;3.00;99.90
24097;DHT22;12275;48.550;12.132;2022-12-07T01:48:02;3.00;99.90
24097;DHT22;12275;48.550;12.132;2022-12-07T01:50:29;3.00;99.90
24097;DHT22;12275;48.550;12.132;2022-12-07T01:52:58;3.00;99.90
24097;DHT22;12275;48.550;12.132;2022-12-07T01:55:24;3.00;99.90
24097;DHT22;12275;48.550;12.132;2022-12-07T01:57:50;3.00;99.90
24097;DHT22;12275;48.550;12.132;2022-12-07T02:00:17;3.00;99.90
24097;DHT22;12275;48.550;12.132;2022-12-07T02:02:57;2.90;99.90
24097;DHT22;12275;48.550;12.132;2022-12-07T02:05:25;2.90;99.90
24097;DHT22;12275;48.550;12.132;2022-12-07T02:07:51;2.90;99.90
24097;DHT22;12275;48.550;12.132;2022-12-07T02:10:22;2.90;99.90
24097;DHT22;12275;48.550;12.132;2022-12-07T02:12:52;2.80;99.90
24097;DHT22;12275;48.550;12.132;2022-12-07T02:15:20;2.80;99.90
24097;DHT22;12275;48.550;12.132;2022-12-07T02:17:58;2.90;99.90
24097;DHT22;12275;48.550;12.132;2022-12-07T02:20:44;2.90;99.90
24097;DHT22;12275;48.550;12.132;2022-12-07T02:28:07;2.90;99.90
24097;DHT22;12275;48.550;12.132;2022-12-07T02:30:35;2.90;99.90
24097;DHT22;12275;48.550;12.132;2022-12-07T02:33:06;2.80;99.90
24097;DHT22;12275;48.550;12.132;2022-12-07T02:38:12;2.90;99.90
24097;DHT22;12275;48.550;12.132;2022-12-07T02:40:43;2.90;99.90
24097;DHT22;12275;48.550;12.132;2022-12-07T02:43:19;2.90;99.90
24097;DHT22;12275;48.550;12.132;2022-12-07T02:45:47;2.90;99.90
24097;DHT22;12275;48.550;12.132;2022-12-07T02:48:13;2.90;99.90
24097;DHT22;12275;48.550;12.132;2022-12-07T02:50:43;2.80;99.90
24097;DHT22;12275;48.550;12.132;2022-12-07T02:53:27;2.80;99.90
24097;DHT22;12275;48.550;12.132;2022-12-07T02:55:53;2.80;99.90
24097;DHT22;12275;48.550;12.132;2022-12-07T03:00:50;2.80;99.90
24097;DHT22;12275;48.550;12.132;2022-12-07T03:03:17;2.80;99.90
24097;DHT22;12275;48.550;12.132;2022-12-07T03:05:52;2.80;99.90
24097;DHT22;12275;48.550;12.132;2022-12-07T03:11:08;2.80;99.90
24097;DHT22;12275;48.550;12.132;2022-12-07T03:13:42;2.80;99.90
24097;DHT22;12275;48.550;12.132;2022-12-07T03:21:15;2.80;99.90
24097;DHT22;12275;48.550;12.132;2022-12-07T03:23:42;2.80;99.90
24097;DHT22;12275;48.550;12.132;2022-12-07T03:26:09;2.80;99.90
24097;DHT22;12275;48.550;12.132;2022-12-07T03:28:39;2.70;99.90
24097;DHT22;12275;48.550;12.132;2022-12-07T03:31:09;2.70;99.90
24097;DHT22;12275;48.550;12.132;2022-12-07T03:33:38;2.70;99.90
24097;DHT22;12275;48.550;12.132;2022-12-07T03:41:44;2.70;99.90
24097;DHT22;12275;48.550;12.132;2022-12-07T03:43:51;2.70;99.90
24097;DHT22;12275;48.550;12.132;2022-12-07T03:46:27;2.70;99.90
24097;DHT22;12275;48.550;12.132;2022-12-07T03:51:24;2.70;99.90
24097;DHT22;12275;48.550;12.132;2022-12-07T03:56:19;2.70;99.90
24097;DHT22;12275;48.550;12.132;2022-12-07T03:58:45;2.70;99.90
24097;DHT22;12275;48.550;12.132;2022-12-07T04:01:11;2.70;99.90
24097;DHT22;12275;48.550;12.132;2022-12-07T04:03:37;2.70;99.90
24097;DHT22;12275;48.550;12.132;2022-12-07T04:06:02;2.70;99.90
24097;DHT22;12275;48.550;12.132;2022-12-07T04:08:28;2.70;99.90
24097;DHT22;12275;48.550;12.132;2022-12-07T04:10:54;2.70;99.90
24097;DHT22;12275;48.550;12.132;2022-12-07T04:13:19;2.70;99.90
24097;DHT22;12275;48.550;12.132;2022-12-07T04:15:45;2.70;99.90
24097;DHT22;12275;48.550;12.132;2022-12-07T04:18:10;2.70;99.90
24097;DHT22;12275;48.550;12.132;2022-12-07T04:20:36;2.70;99.90
24097;DHT22;12275;48.550;12.132;2022-12-07T04:23:01;2.70;99.90
24097;DHT22;12275;48.550;12.132;2022-12-07T04:25:27;2.70;99.90
24097;DHT22;12275;48.550;12.132;2022-12-07T04:27:52;2.60;99.90
24097;DHT22;12275;48.550;12.132;2022-12-07T04:30:19;2.60;99.90
24097;DHT22;12275;48.550;12.132;2022-12-07T04:32:44;2.60;99.90
24097;DHT22;12275;48.550;12.132;2022-12-07T04:35:10;2.60;99.90
24097;DHT22;12275;48.550;12.132;2022-12-07T04:37:35;2.60;99.90
24097;DHT22;12275;48.550;12.132;2022-12-07T04:40:01;2.60;99.90
24097;DHT22;12275;48.550;12.132;2022-12-07T04:42:26;2.60;99.90
24097;DHT22;12275;48.550;12.132;2022-12-07T04:44:52;2.60;99.90
24097;DHT22;12275;48.550;12.132;2022-12-07T04:47:17;2.60;99.90
24097;DHT22;12275;48.550;12.132;2022-12-07T04:49:43;2.60;99.90
24097;DHT22;12275;48.550;12.132;2022-12-07T04:52:08;2.60;99.90
24097;DHT22;12275;48.550;12.132;2022-12-07T04:54:34;2.60;99.90
24097;DHT22;12275;48.550;12.132;2022-12-07T04:56:59;2.60;99.90
24097;DHT22;12275;48.550;12.132;2022-12-07T04:59:25;2.60;99.90
24097;DHT22;12275;48.550;12.132;2022-12-07T05:01:51;2.60;99.90
24097;DHT22;12275;48.550;12.132;2022-12-07T05:04:16;2.60;99.90
24097;DHT22;12275;48.550;12.132;2022-12-07T05:06:43;2.60;99.90
24097;DHT22;12275;48.550;12.132;2022-12-07T05:09:08;2.60;99.90
24097;DHT22;12275;48.550;12.132;2022-12-07T05:11:34;2.70;99.90
24097;DHT22;12275;48.550;12.132;2022-12-07T05:14:19;2.70;99.90
24097;DHT22;12275;48.550;12.132;2022-12-07T05:16:45;2.60;99.90
24097;DHT22;12275;48.550;12.132;2022-12-07T05:19:12;2.60;99.90
24097;DHT22;12275;48.550;12.132;2022-12-07T05:21:38;2.60;99.90
24097;DHT22;12275;48.550;12.132;2022-12-07T05:24:07;2.60;99.90
24097;DHT22;12275;48.550;12.132;2022-12-07T05:26:33;2.60;99.90
24097;DHT22;12275;48.550;12.132;2022-12-07T05:28:59;2.70;99.90
24097;DHT22;12275;48.550;12.132;2022-12-07T05:31:25;2.60;99.90
24097;DHT22;12275;48.550;12.132;2022-12-07T05:33:51;2.60;99.90
24097;DHT22;12275;48.550;12.132;2022-12-07T05:36:16;2.70;99.90
24097;DHT22;12275;48.550;12.132;2022-12-07T05:38:42;2.70;99.90
24097;DHT22;12275;48.550;12.132;2022-12-07T05:41:08;2.60;99.90
24097;DHT22;12275;48.550;12.132;2022-12-07T05:43:57;2.60;99.90
24097;DHT22;12275;48.550;12.132;2022-12-07T05:46:22;2.60;99.90
24097;DHT22;12275;48.550;12.132;2022-12-07T05:48:48;2.60;99.90
24097;DHT22;12275;48.550;12.132;2022-12-07T05:51:13;2.60;99.90
24097;DHT22;12275;48.550;12.132;2022-12-07T05:53:39;2.60;99.90
24097;DHT22;12275;48.550;12.132;2022-12-07T05:56:05;2.60;99.90
24097;DHT22;12275;48.550;12.132;2022-12-07T05:58:30;2.60;99.90
24097;DHT22;12275;48.550;12.132;2022-12-07T06:01:14;2.60;99.90
24097;DHT22;12275;48.550;12.132;2022-12-07T06:03:40;2.60;99.90
24097;DHT22;12275;48.550;12.132;2022-12-07T06:06:05;2.50;99.90
24097;DHT22;12275;48.550;12.132;2022-12-07T06:08:31;2.60;99.90
24097;DHT22;12275;48.550;12.132;2022-12-07T06:10:56;2.50;99.90
24097;DHT22;12275;48.550;12.132;2022-12-07T06:13:41;2.60;99.90
24097;DHT22;12275;48.550;12.132;2022-12-07T06:16:06;2.50;99.90
24097;DHT22;12275;48.550;12.132;2022-12-07T06:18:32;2.50;99.90
24097;DHT22;12275;48.550;12.132;2022-12-07T06:20:58;2.50;99.90
24097;DHT22;12275;48.550;12.132;2022-12-07T06:23:23;2.50;99.90
24097;DHT22;12275;48.550;12.132;2022-12-07T06:25:49;2.40;99.90
24097;DHT22;12275;48.550;12.132;2022-12-07T06:28:14;2.40;99.90
24097;DHT22;12275;48.550;12.132;2022-12-07T06:30:40;2.40;99.90
24097;DHT22;12275;48.550;12.132;2022-12-07T06:33:05;2.30;99.90
24097;DHT22;12275;48.550;12.132;2022-12-07T06:35:32;2.30;99.90
24097;DHT22;12275;48.550;12.132;2022-12-07T06:37:57;2.40;99.90
24097;DHT22;12275;48.550;12.132;2022-12-07T06:40:23;2.40;99.90
24097;DHT22;12275;48.550;12.132;2022-12-07T06:42:48;2.20;99.90
24097;DHT22;12275;48.550;12.132;2022-12-07T06:45:14;2.30;99.90
24097;DHT22;12275;48.550;12.132;2022-12-07T06:47:39;2.20;99.90
24097;DHT22;12275;48.550;12.132;2022-12-07T06:50:05;2.10;99.90
24097;DHT22;12275;48.550;12.132;2022-12-07T06:52:33;2.10;99.90
24097;DHT22;12275;48.550;12.132;2022-12-07T06:54:58;2.10;99.90
24097;DHT22;12275;48.550;12.132;2022-12-07T06:57:24;2.10;99.90
24097;DHT22;12275;48.550;12.132;2022-12-07T06:59:50;2.00;99.90
24097;DHT22;12275;48.550;12.132;2022-12-07T07:02:15;2.00;99.90
24097;DHT22;12275;48.550;12.132;2022-12-07T07:04:41;2.00;99.90
24097;DHT22;12275;48.550;12.132;2022-12-07T07:07:07;2.10;99.90
24097;DHT22;12275;48.550;12.132;2022-12-07T07:09:32;2.10;99.90
24097;DHT22;12275;48.550;12.132;2022-12-07T07:11:58;2.10;99.90
24097;DHT22;12275;48.550;12.132;2022-12-07T07:14:23;2.10;99.90
24097;DHT22;12275;48.550;12.132;2022-12-07T07:16:49;2.10;99.90
24097;DHT22;12275;48.550;12.132;2022-12-07T07:19:14;2.00;99.90
24097;DHT22;12275;48.550;12.132;2022-12-07T07:21:40;2.00;99.90
24097;DHT22;12275;48.550;12.132;2022-12-07T07:24:05;2.00;99.90
24097;DHT22;12275;48.550;12.132;2022-12-07T07:26:31;2.00;99.90
24097;DHT22;12275;48.550;12.132;2022-12-07T07:28:57;1.90;99.90
24097;DHT22;12275;48.550;12.132;2022-12-07T07:31:22;1.90;99.90
24097;DHT22;12275;48.550;12.132;2022-12-07T07:33:48;1.90;99.90
24097;DHT22;12275;48.550;12.132;2022-12-07T07:36:13;2.00;99.90
24097;DHT22;12275;48.550;12.132;2022-12-07T07:38:39;2.10;99.90
24097;DHT22;12275;48.550;12.132;2022-12-07T07:41:04;2.20;99.90
24097;DHT22;12275;48.550;12.132;2022-12-07T07:43:30;2.20;99.90
24097;DHT22;12275;48.550;12.132;2022-12-07T07:45:55;2.20;99.90
24097;DHT22;12275;48.550;12.132;2022-12-07T07:48:21;2.20;99.90
24097;DHT22;12275;48.550;12.132;2022-12-07T07:50:48;2.30;99.90
24097;DHT22;12275;48.550;12.132;2022-12-07T07:53:13;2.30;99.90
24097;DHT22;12275;48.550;12.132;2022-12-07T07:55:39;2.40;99.90
24097;DHT22;12275;48.550;12.132;2022-12-07T07:58:04;2.40;99.90
24097;DHT22;12275;48.550;12.132;2022-12-07T08:00:30;2.50;99.90
24097;DHT22;12275;48.550;12.132;2022-12-07T08:02:55;2.50;99.90
24097;DHT22;12275;48.550;12.132;2022-12-07T08:05:21;2.40;99.90
24097;DHT22;12275;48.550;12.132;2022-12-07T08:07:47;2.50;99.90
24097;DHT22;12275;48.550;12.132;2022-12-07T08:10:13;2.40;99.90
24097;DHT22;12275;48.550;12.132;2022-12-07T08:12:39;2.40;99.90
24097;DHT22;12275;48.550;12.132;2022-12-07T08:15:25;2.40;99.90
24097;DHT22;12275;48.550;12.132;2022-12-07T08:17:51;2.40;99.90
24097;DHT22;12275;48.550;12.132;2022-12-07T08:20:16;2.30;99.90
24097;DHT22;12275;48.550;12.132;2022-12-07T08:22:42;2.40;99.90
24097;DHT22;12275;48.550;12.132;2022-12-07T08:25:07;2.40;99.90
24097;DHT22;12275;48.550;12.132;2022-12-07T08:27:33;2.40;99.90
24097;DHT22;12275;48.550;12.132;2022-12-07T08:29:58;2.40;99.90
24097;DHT22;12275;48.550;12.132;2022-12-07T08:32:24;2.40;99.90
24097;DHT22;12275;48.550;12.132;2022-12-07T08:34:49;2.50;99.90
24097;DHT22;12275;48.550;12.132;2022-12-07T08:37:15;2.60;99.90
24097;DHT22;12275;48.550;12.132;2022-12-07T08:39:40;2.70;99.90
24097;DHT22;12275;48.550;12.132;2022-12-07T08:42:06;3.00;99.90
24097;DHT22;12275;48.550;12.132;2022-12-07T08:44:31;3.10;99.90
24097;DHT22;12275;48.550;12.132;2022-12-07T08:46:58;3.10;99.90
24097;DHT22;12275;48.550;12.132;2022-12-07T08:49:27;3.00;99.90
24097;DHT22;12275;48.550;12.132;2022-12-07T08:51:53;2.90;99.90
24097;DHT22;12275;48.550;12.132;2022-12-07T08:54:20;2.80;99.90
24097;DHT22;12275;48.550;12.132;2022-12-07T08:56:45;2.90;99.90
24097;DHT22;12275;48.550;12.132;2022-12-07T08:59:12;2.90;99.90
24097;DHT22;12275;48.550;12.132;2022-12-07T09:01:39;2.90;99.90
24097;DHT22;12275;48.550;12.132;2022-12-07T09:04:05;2.90;99.90
24097;DHT22;12275;48.550;12.132;2022-12-07T09:06:31;3.00;99.90
24097;DHT22;12275;48.550;12.132;2022-12-07T09:08:57;2.90;99.90
24097;DHT22;12275;48.550;12.132;2022-12-07T09:11:23;2.90;99.90
24097;DHT22;12275;48.550;12.132;2022-12-07T09:13:48;3.30;99.90
24097;DHT22;12275;48.550;12.132;2022-12-07T09:16:14;3.20;99.90
24097;DHT22;12275;48.550;12.132;2022-12-07T09:18:40;3.20;99.90
24097;DHT22;12275;48.550;12.132;2022-12-07T09:21:05;3.30;99.90
24097;DHT22;12275;48.550;12.132;2022-12-07T09:23:31;3.50;99.90
24097;DHT22;12275;48.550;12.132;2022-12-07T09:26:00;3.70;99.90
24097;DHT22;12275;48.550;12.132;2022-12-07T09:28:26;3.80;99.90
24097;DHT22;12275;48.550;12.132;2022-12-07T09:30:51;3.80;99.90
24097;DHT22;12275;48.550;12.132;2022-12-07T09:33:17;3.70;99.90
24097;DHT22;12275;48.550;12.132;2022-12-07T09:35:48;3.50;99.90
24097;DHT22;12275;48.550;12.132;2022-12-07T09:38:14;3.60;99.90
24097;DHT22;12275;48.550;12.132;2022-12-07T09:40:39;3.70;99.90
24097;DHT22;12275;48.550;12.132;2022-12-07T09:43:10;3.80;99.90
24097;DHT22;12275;48.550;12.132;2022-12-07T09:45:37;3.90;99.90
24097;DHT22;12275;48.550;12.132;2022-12-07T09:48:03;4.00;99.90
24097;DHT22;12275;48.550;12.132;2022-12-07T09:50:29;3.90;99.90
24097;DHT22;12275;48.550;12.132;2022-12-07T09:55:46;3.80;99.90
24097;DHT22;12275;48.550;12.132;2022-12-07T09:58:16;3.80;99.90
24097;DHT22;12275;48.550;12.132;2022-12-07T10:00:44;3.80;99.90
24097;DHT22;12275;48.550;12.132;2022-12-07T10:03:10;3.70;99.90
24097;DHT22;12275;48.550;12.132;2022-12-07T10:05:38;3.70;99.90
24097;DHT22;12275;48.550;12.132;2022-12-07T10:08:05;3.60;99.90
24097;DHT22;12275;48.550;12.132;2022-12-07T10:10:32;3.70;99.90
24097;DHT22;12275;48.550;12.132;2022-12-07T10:13:01;3.70;99.90
24097;DHT22;12275;48.550;12.132;2022-12-07T10:20:47;3.80;99.90
24097;DHT22;12275;48.550;12.132;2022-12-07T10:23:17;3.70;99.90
24097;DHT22;12275;48.550;12.132;2022-12-07T10:25:42;3.70;99.90
24097;DHT22;12275;48.550;12.132;2022-12-07T10:30:56;3.70;99.90
24097;DHT22;12275;48.550;12.132;2022-12-07T10:36:22;3.70;99.90
24097;DHT22;12275;48.550;12.132;2022-12-07T10:39:03;3.70;99.90
24097;DHT22;12275;48.550;12.132;2022-12-07T10:41:29;3.70;99.90
24097;DHT22;12275;48.550;12.132;2022-12-07T10:43:55;3.80;99.90
24097;DHT22;12275;48.550;12.132;2022-12-07T10:51:29;4.50;99.90
24097;DHT22;12275;48.550;12.132;2022-12-07T11:01:45;4.70;99.90
24097;DHT22;12275;48.550;12.132;2022-12-07T11:06:54;4.50;99.90
24097;DHT22;12275;48.550;12.132;2022-12-07T11:17:17;4.50;99.90
24097;DHT22;12275;48.550;12.132;2022-12-07T11:22:18;4.30;99.90
24097;DHT22;12275;48.550;12.132;2022-12-07T11:27:49;4.20;99.90
24097;DHT22;12275;48.550;12.132;2022-12-07T11:30:22;4.20;99.90
24097;DHT22;12275;48.550;12.132;2022-12-07T11:32:53;4.10;99.90
24097;DHT22;12275;48.550;12.132;2022-12-07T11:38:18;4.10;99.90
24097;DHT22;12275;48.550;12.132;2022-12-07T11:40:43;4.10;99.90
24097;DHT22;12275;48.550;12.132;2022-12-07T11:43:26;4.10;99.90
24097;DHT22;12275;48.550;12.132;2022-12-07T11:45:55;4.10;99.90
24097;DHT22;12275;48.550;12.132;2022-12-07T11:50:53;4.10;99.90
24097;DHT22;12275;48.550;12.132;2022-12-07T11:53:21;4.20;99.90
24097;DHT22;12275;48.550;12.132;2022-12-07T11:55:58;4.20;99.90
24097;DHT22;12275;48.550;12.132;2022-12-07T12:01:09;4.20;99.90
24097;DHT22;12275;48.550;12.132;2022-12-07T12:03:37;4.20;99.90
24097;DHT22;12275;48.550;12.132;2022-12-07T12:06:03;4.20;99.90
24097;DHT22;12275;48.550;12.132;2022-12-07T12:08:30;4.20;99.90
24097;DHT22;12275;48.550;12.132;2022-12-07T12:11:00;4.20;99.90
24097;DHT22;12275;48.550;12.132;2022-12-07T12:13:33;4.20;99.90
24097;DHT22;12275;48.550;12.132;2022-12-07T12:16:16;4.10;99.90
24097;DHT22;12275;48.550;12.132;2022-12-07T12:19:10;4.10;99.90
24097;DHT22;12275;48.550;12.132;2022-12-07T12:21:39;4.10;99.90
24097;DHT22;12275;48.550;12.132;2022-12-07T12:24:26;4.00;99.90
24097;DHT22;12275;48.550;12.132;2022-12-07T12:26:52;4.00;99.90
24097;DHT22;12275;48.550;12.132;2022-12-07T12:29:19;4.00;99.90
24097;DHT22;12275;48.550;12.132;2022-12-07T12:31:47;4.00;99.90
24097;DHT22;12275;48.550;12.132;2022-12-07T12:34:38;4.10;99.90
24097;DHT22;12275;48.550;12.132;2022-12-07T12:37:13;4.00;99.90
24097;DHT22;12275;48.550;12.132;2022-12-07T12:42:43;3.90;99.90
24097;DHT22;12275;48.550;12.132;2022-12-07T12:45:18;3.90;99.90
24097;DHT22;12275;48.550;12.132;2022-12-07T12:57:35;3.90;99.90
24097;DHT22;12275;48.550;12.132;2022-12-07T13:00:12;4.00;99.90
24097;DHT22;12275;48.550;12.132;2022-12-07T13:02:50;4.00;99.90
24097;DHT22;12275;48.550;12.132;2022-12-07T13:05:21;4.00;99.90
24097;DHT22;12275;48.550;12.132;2022-12-07T13:15:38;4.00;99.90
24097;DHT22;12275;48.550;12.132;2022-12-07T13:20:57;4.00;99.90
24097;DHT22;12275;48.550;12.132;2022-12-07T13:25:59;3.90;99.90
24097;DHT22;12275;48.550;12.132;2022-12-07T13:28:27;3.90;99.90
24097;DHT22;12275;48.550;12.132;2022-12-07T13:33:22;3.90;99.90
24097;DHT22;12275;48.550;12.132;2022-12-07T13:35:48;3.90;99.90
24097;DHT22;12275;48.550;12.132;2022-12-07T13:38:27;3.90;99.90
24097;DHT22;12275;48.550;12.132;2022-12-07T13:43:30;3.90;99.90
24097;DHT22;12275;48.550;12.132;2022-12-07T13:45:57;3.90;99.90
24097;DHT22;12275;48.550;12.132;2022-12-07T13:48:33;3.90;99.90
24097;DHT22;12275;48.550;12.132;2022-12-07T13:51:01;3.80;99.90
24097;DHT22;12275;48.550;12.132;2022-12-07T13:53:27;3.80;99.90
24097;DHT22;12275;48.550;12.132;2022-12-07T13:55:59;3.80;99.90
24097;DHT22;12275;48.550;12.132;2022-12-07T13:58:25;3.80;99.90
24097;DHT22;12275;48.550;12.132;2022-12-07T14:00:51;3.70;99.90
24097;DHT22;12275;48.550;12.132;2022-12-07T14:05:43;3.80;99.90
24097;DHT22;12275;48.550;12.132;2022-12-07T14:10:41;3.80;99.90
24097;DHT22;12275;48.550;12.132;2022-12-07T14:13:37;3.80;99.90
24097;DHT22;12275;48.550;12.132;2022-12-07T14:18:42;3.70;99.90
24097;DHT22;12275;48.550;12.132;2022-12-07T14:21:14;3.80;99.90
24097;DHT22;12275;48.550;12.132;2022-12-07T14:23:40;3.70;99.90
24097;DHT22;12275;48.550;12.132;2022-12-07T14:26:19;3.70;99.90
24097;DHT22;12275;48.550;12.132;2022-12-07T14:28:45;3.70;99.90
24097;DHT22;12275;48.550;12.132;2022-12-07T14:31:11;3.70;99.90
24097;DHT22;12275;48.550;12.132;2022-12-07T14:33:38;3.70;99.90
24097;DHT22;12275;48.550;12.132;2022-12-07T14:36:03;3.70;99.90
24097;DHT22;12275;48.550;12.132;2022-12-07T14:38:29;3.70;99.90
24097;DHT22;12275;48.550;12.132;2022-12-07T14:40:54;3.60;99.90
24097;DHT22;12275;48.550;12.132;2022-12-07T14:43:40;3.60;99.90
24097;DHT22;12275;48.550;12.132;2022-12-07T14:46:06;3.60;99.90
24097;DHT22;12275;48.550;12.132;2022-12-07T14:48:31;3.60;99.90
24097;DHT22;12275;48.550;12.132;2022-12-07T14:50:57;3.60;99.90
24097;DHT22;12275;48.550;12.132;2022-12-07T14:53:25;3.60;99.90
24097;DHT22;12275;48.550;12.132;2022-12-07T14:55:53;3.60;99.90
24097;DHT22;12275;48.550;12.132;2022-12-07T14:58:18;3.60;99.90
24097;DHT22;12275;48.550;12.132;2022-12-07T15:00:45;3.60;99.90
24097;DHT22;12275;48.550;12.132;2022-12-07T15:03:12;3.60;99.90
24097;DHT22;12275;48.550;12.132;2022-12-07T15:05:38;3.60;99.90
24097;DHT22;12275;48.550;12.132;2022-12-07T15:08:04;3.50;99.90
24097;DHT22;12275;48.550;12.132;2022-12-07T15:10:31;3.50;99.90
24097;DHT22;12275;48.550;12.132;2022-12-07T15:13:01;3.50;99.90
24097;DHT22;12275;48.550;12.132;2022-12-07T15:15:46;3.50;99.90
24097;DHT22;12275;48.550;12.132;2022-12-07T15:18:12;3.50;99.90
24097;DHT22;12275;48.550;12.132;2022-12-07T15:20:38;3.50;99.90
24097;DHT22;12275;48.550;12.132;2022-12-07T15:23:04;3.50;99.90
24097;DHT22;12275;48.550;12.132;2022-12-07T15:25:29;3.50;99.90
24097;DHT22;12275;48.550;12.132;2022-12-07T15:27:55;3.50;99.90
24097;DHT22;12275;48.550;12.132;2022-12-07T15:30:20;3.50;99.90
24097;DHT22;12275;48.550;12.132;2022-12-07T15:32:49;3.50;99.90
24097;DHT22;12275;48.550;12.132;2022-12-07T15:35:15;3.50;99.90
24097;DHT22;12275;48.550;12.132;2022-12-07T15:37:41;3.40;99.90
24097;DHT22;12275;48.550;12.132;2022-12-07T15:40:06;3.40;99.90
24097;DHT22;12275;48.550;12.132;2022-12-07T15:42:32;3.40;99.90
24097;DHT22;12275;48.550;12.132;2022-12-07T15:44:57;3.40;99.90
24097;DHT22;12275;48.550;12.132;2022-12-07T15:47:30;3.40;99.90
24097;DHT22;12275;48.550;12.132;2022-12-07T15:49:55;3.40;99.90
24097;DHT22;12275;48.550;12.132;2022-12-07T15:52:21;3.40;99.90
24097;DHT22;12275;48.550;12.132;2022-12-07T15:54:47;3.40;99.90
24097;DHT22;12275;48.550;12.132;2022-12-07T15:57:13;3.40;99.90
24097;DHT22;12275;48.550;12.132;2022-12-07T15:59:38;3.40;99.90
24097;DHT22;12275;48.550;12.132;2022-12-07T16:02:04;3.40;99.90
24097;DHT22;12275;48.550;12.132;2022-12-07T16:04:30;3.40;99.90
24097;DHT22;12275;48.550;12.132;2022-12-07T16:06:55;3.40;99.90
24097;DHT22;12275;48.550;12.132;2022-12-07T16:09:21;3.40;99.90
24097;DHT22;12275;48.550;12.132;2022-12-07T16:11:47;3.40;99.90
24097;DHT22;12275;48.550;12.132;2022-12-07T16:14:12;3.40;99.90
24097;DHT22;12275;48.550;12.132;2022-12-07T16:16:38;3.40;99.90
24097;DHT22;12275;48.550;12.132;2022-12-07T16:19:05;3.40;99.90
24097;DHT22;12275;48.550;12.132;2022-12-07T16:21:31;3.30;99.90
24097;DHT22;12275;48.550;12.132;2022-12-07T16:23:59;3.30;99.90
24097;DHT22;12275;48.550;12.132;2022-12-07T16:26:25;3.30;99.90
24097;DHT22;12275;48.550;12.132;2022-12-07T16:28:51;3.30;99.90
24097;DHT22;12275;48.550;12.132;2022-12-07T16:31:21;3.30;99.90
24097;DHT22;12275;48.550;12.132;2022-12-07T16:33:47;3.30;99.90
24097;DHT22;12275;48.550;12.132;2022-12-07T16:36:12;3.20;99.90
24097;DHT22;12275;48.550;12.132;2022-12-07T16:38:39;3.20;99.90
24097;DHT22;12275;48.550;12.132;2022-12-07T16:41:06;3.20;99.90
24097;DHT22;12275;48.550;12.132;2022-12-07T16:43:32;3.20;99.90
24097;DHT22;12275;48.550;12.132;2022-12-07T16:45:57;3.30;99.90
24097;DHT22;12275;48.550;12.132;2022-12-07T16:48:23;3.20;99.90
24097;DHT22;12275;48.550;12.132;2022-12-07T16:50:48;3.20;99.90
24097;DHT22;12275;48.550;12.132;2022-12-07T16:53:14;3.20;99.90
24097;DHT22;12275;48.550;12.132;2022-12-07T16:55:44;3.30;99.90
24097;DHT22;12275;48.550;12.132;2022-12-07T16:58:10;3.30;99.90
24097;DHT22;12275;48.550;12.132;2022-12-07T17:00:36;3.30;99.90
24097;DHT22;12275;48.550;12.132;2022-12-07T17:03:02;3.30;99.90
24097;DHT22;12275;48.550;12.132;2022-12-07T17:05:28;3.20;99.90
24097;DHT22;12275;48.550;12.132;2022-12-07T17:07:54;3.20;99.90
24097;DHT22;12275;48.550;12.132;2022-12-07T17:10:20;3.20;99.90
24097;DHT22;12275;48.550;12.132;2022-12-07T17:12:45;3.20;99.90
24097;DHT22;12275;48.550;12.132;2022-12-07T17:15:11;3.20;99.90
24097;DHT22;12275;48.550;12.132;2022-12-07T17:18:00;3.20;99.90
24097;DHT22;12275;48.550;12.132;2022-12-07T17:20:27;3.20;99.90
24097;DHT22;12275;48.550;12.132;2022-12-07T17:22:52;3.20;99.90
24097;DHT22;12275;48.550;12.132;2022-12-07T17:25:18;3.20;99.90
24097;DHT22;12275;48.550;12.132;2022-12-07T17:27:44;3.20;99.90
24097;DHT22;12275;48.550;12.132;2022-12-07T17:30:10;3.20;99.90